Time;durP1;ratioP1;P1;durP2;ratioP2;P2;SDS_P1;SDS_P2;PMS_P1;PMS_P2;Temp;Humidity;BMP_temperature;BMP_pressure;BME280_temperature;BME280_humidity;BME280_pressure;Samples;Min_cycle;Max_cycle;Signal;HPM_P1;HPM_P2
2021/08/13 00:01:54;;;;;;;6.95;2.90;;;41.60;34.30;;;;;;5084189;28;20069;-63
2021/08/13 00:04:20;;;;;;;10.60;2.67;;;41.60;34.00;;;;;;5083874;28;20565;-64
2021/08/13 00:06:50;;;;;;;11.05;2.80;;;41.60;33.80;;;;;;5081956;28;20079;-66
2021/08/13 00:09:18;;;;;;;13.80;2.80;;;41.60;33.70;;;;;;5082493;28;20081;-63
2021/08/13 00:11:44;;;;;;;8.70;2.53;;;41.50;33.70;;;;;;5077655;28;20128;-64
2021/08/13 00:14:11;;;;;;;5.95;2.70;;;41.40;33.70;;;;;;5082388;28;20332;-63
2021/08/13 00:16:38;;;;;;;5.28;2.30;;;41.30;33.80;;;;;;5085821;28;20073;-64
2021/08/13 00:19:04;;;;;;;6.32;2.90;;;41.20;34.10;;;;;;5080243;28;20076;-63
2021/08/13 00:21:31;;;;;;;8.35;2.72;;;41.10;34.00;;;;;;5066933;28;20081;-63
2021/08/13 00:23:58;;;;;;;14.10;2.70;;;41.00;34.20;;;;;;5082894;28;20125;-65
2021/08/13 00:26:27;;;;;;;5.22;2.88;;;41.00;34.30;;;;;;5082766;28;20073;-65
2021/08/13 00:28:54;;;;;;;12.10;2.60;;;41.10;34.10;;;;;;5079064;28;20085;-64
2021/08/13 00:31:20;;;;;;;10.18;2.70;;;41.00;34.50;;;;;;5078266;28;20073;-63
2021/08/13 00:33:47;;;;;;;5.60;2.53;;;40.90;34.10;;;;;;5081450;28;20108;-65
2021/08/13 00:36:14;;;;;;;7.93;2.78;;;40.80;34.00;;;;;;5083003;28;20100;-64
2021/08/13 00:38:41;;;;;;;9.27;3.05;;;40.70;34.80;;;;;;5077957;28;20106;-63
2021/08/13 00:41:11;;;;;;;9.07;2.40;;;40.70;34.30;;;;;;5079692;28;20159;-67
2021/08/13 00:43:38;;;;;;;11.57;2.92;;;40.60;35.30;;;;;;5081586;28;20164;-63
2021/08/13 00:46:05;;;;;;;13.18;2.83;;;40.60;35.30;;;;;;5083441;28;20109;-64
2021/08/13 00:48:31;;;;;;;10.90;3.13;;;40.40;35.10;;;;;;5081352;28;20106;-64
2021/08/13 00:50:58;;;;;;;22.02;3.30;;;40.40;35.20;;;;;;5082117;28;20114;-64
2021/08/13 00:53:26;;;;;;;6.15;2.78;;;40.30;35.10;;;;;;5081781;28;20395;-63
2021/08/13 00:55:52;;;;;;;11.40;3.17;;;40.30;35.50;;;;;;5089518;28;20076;-63
2021/08/13 00:58:20;;;;;;;7.60;2.65;;;40.30;35.20;;;;;;5087317;28;20074;-64
2021/08/13 01:00:47;;;;;;;9.45;2.47;;;40.20;35.10;;;;;;5089625;28;20560;-64
2021/08/13 01:03:14;;;;;;;14.80;3.55;;;40.10;35.90;;;;;;5091665;28;20097;-64
2021/08/13 01:05:41;;;;;;;11.20;2.88;;;40.10;35.20;;;;;;5091031;28;20127;-64
2021/08/13 01:08:07;;;;;;;11.68;2.60;;;40.00;35.70;;;;;;5087030;28;20092;-64
2021/08/13 01:10:41;;;;;;;6.80;2.67;;;40.00;35.70;;;;;;5083807;28;20090;-64
2021/08/13 01:13:22;;;;;;;10.68;2.63;;;39.90;36.30;;;;;;5082378;28;20072;-64
2021/08/13 01:15:53;;;;;;;23.27;3.33;;;39.90;35.40;;;;;;5082816;28;20683;-65
2021/08/13 01:18:30;;;;;;;8.27;3.00;;;39.90;35.40;;;;;;5079588;28;20523;-64
2021/08/13 01:21:26;;;;;;;8.02;2.78;;;39.70;35.70;;;;;;5079915;28;20106;-65
2021/08/13 01:24:20;;;;;;;12.23;2.85;;;39.70;34.90;;;;;;5082381;28;20101;-64
2021/08/13 01:27:02;;;;;;;8.05;2.90;;;39.50;35.60;;;;;;5079533;28;20168;-64
2021/08/13 01:29:47;;;;;;;13.27;2.88;;;39.40;36.00;;;;;;5079166;28;20123;-64
2021/08/13 01:32:13;;;;;;;8.90;2.70;;;39.30;36.20;;;;;;5079336;28;20146;-65
2021/08/13 01:34:46;;;;;;;11.27;2.80;;;39.30;36.30;;;;;;5079974;28;20189;-65
2021/08/13 01:37:15;;;;;;;12.88;3.00;;;39.20;36.40;;;;;;5080491;28;20156;-65
2021/08/13 01:39:44;;;;;;;11.18;3.22;;;39.10;36.60;;;;;;5080705;28;20109;-66
2021/08/13 01:42:11;;;;;;;10.18;2.63;;;39.10;36.60;;;;;;5083285;28;20471;-67
2021/08/13 01:44:40;;;;;;;15.82;3.88;;;39.10;36.60;;;;;;5081271;28;20077;-67
2021/08/13 01:47:07;;;;;;;9.05;3.30;;;39.10;36.50;;;;;;5083399;28;20102;-66
2021/08/13 01:49:35;;;;;;;9.35;3.30;;;39.00;36.70;;;;;;5080017;28;20148;-65
2021/08/13 01:52:04;;;;;;;9.85;3.08;;;38.90;36.60;;;;;;5081707;28;20116;-65
2021/08/13 01:54:32;;;;;;;7.65;2.70;;;38.90;36.90;;;;;;5081700;28;20449;-65
2021/08/13 01:56:59;;;;;;;11.77;2.83;;;38.80;36.70;;;;;;5080094;28;20554;-66
2021/08/13 01:59:25;;;;;;;11.30;2.92;;;38.70;37.40;;;;;;5078822;28;20116;-66
2021/08/13 02:01:52;;;;;;;8.90;3.05;;;38.60;37.20;;;;;;5080858;28;20163;-66
2021/08/13 02:04:19;;;;;;;14.73;3.33;;;38.60;37.30;;;;;;5080073;28;20134;-66
2021/08/13 02:06:50;;;;;;;7.93;2.80;;;38.50;37.30;;;;;;5083603;28;20534;-66
2021/08/13 02:09:20;;;;;;;13.77;2.95;;;38.50;38.00;;;;;;5085127;28;20105;-65
2021/08/13 02:11:46;;;;;;;9.52;2.97;;;38.40;37.70;;;;;;5079666;28;20121;-64
2021/08/13 02:14:15;;;;;;;9.40;3.20;;;38.40;37.20;;;;;;5082876;28;20064;-64
2021/08/13 02:16:45;;;;;;;11.63;2.53;;;38.30;38.10;;;;;;5082156;28;20073;-65
2021/08/13 02:19:39;;;;;;;11.32;2.58;;;38.20;38.10;;;;;;5082759;28;20672;-65
2021/08/13 02:22:06;;;;;;;11.70;3.47;;;38.10;37.40;;;;;;5057802;28;20538;-66
2021/08/13 02:24:32;;;;;;;8.68;2.88;;;38.10;38.40;;;;;;5086468;28;20108;-66
2021/08/13 02:27:01;;;;;;;10.90;2.83;;;38.10;38.30;;;;;;5083818;28;20080;-65
2021/08/13 02:29:28;;;;;;;12.00;2.70;;;38.00;38.60;;;;;;5087526;28;20568;-66
2021/08/13 02:31:54;;;;;;;7.55;2.90;;;37.90;38.50;;;;;;5083350;28;20077;-65
2021/08/13 02:34:21;;;;;;;7.80;2.70;;;37.80;38.40;;;;;;5081428;28;20103;-66
2021/08/13 02:36:59;;;;;;;15.63;3.03;;;37.80;38.30;;;;;;5081232;28;20101;-66
2021/08/13 02:39:30;;;;;;;20.45;3.22;;;37.70;37.40;;;;;;5084950;28;20073;-65
2021/08/13 02:42:01;;;;;;;9.77;3.20;;;37.70;38.50;;;;;;5085813;28;20077;-66
2021/08/13 02:44:32;;;;;;;13.75;3.00;;;37.70;38.10;;;;;;5083508;28;20088;-65
2021/08/13 02:47:04;;;;;;;15.40;3.58;;;37.60;38.40;;;;;;5083831;28;20061;-65
2021/08/13 02:49:30;;;;;;;9.27;3.50;;;37.60;37.70;;;;;;5081797;28;20085;-64
2021/08/13 02:52:01;;;;;;;10.32;3.50;;;37.60;38.00;;;;;;5085347;28;20200;-65
2021/08/13 02:54:30;;;;;;;10.68;2.85;;;37.60;38.70;;;;;;5082843;28;20093;-66
2021/08/13 02:56:57;;;;;;;24.23;3.58;;;37.60;38.60;;;;;;5082220;28;20519;-65
2021/08/13 02:59:28;;;;;;;10.73;3.35;;;37.60;38.50;;;;;;5082829;28;20085;-65
2021/08/13 03:01:58;;;;;;;39.65;7.03;;;37.50;39.60;;;;;;5103054;28;20065;-63
2021/08/13 03:04:28;;;;;;;27.88;17.27;;;37.50;38.60;;;;;;5082966;28;20135;-65
2021/08/13 03:06:56;;;;;;;43.53;19.13;;;37.40;35.00;;;;;;5082786;28;20133;-64
2021/08/13 03:09:24;;;;;;;35.45;19.60;;;37.40;34.30;;;;;;5084541;28;20077;-64
2021/08/13 03:11:52;;;;;;;36.47;19.35;;;37.40;35.00;;;;;;5081647;28;20073;-64
2021/08/13 03:14:20;;;;;;;40.25;21.02;;;37.40;35.20;;;;;;5083505;28;20077;-63
2021/08/13 03:16:48;;;;;;;34.80;21.77;;;37.30;34.00;;;;;;5085506;28;20546;-65
2021/08/13 03:19:15;;;;;;;43.10;22.48;;;37.30;33.20;;;;;;5085094;28;20072;-65
2021/08/13 03:21:42;;;;;;;33.03;19.75;;;37.30;32.90;;;;;;5083687;28;20117;-63
2021/08/13 03:24:11;;;;;;;30.42;18.05;;;37.30;32.50;;;;;;5086669;28;20614;-65
2021/08/13 03:26:39;;;;;;;35.97;17.40;;;37.30;32.30;;;;;;5084106;28;20085;-64
2021/08/13 03:29:06;;;;;;;34.00;14.88;;;37.20;32.60;;;;;;5086360;28;20076;-64
2021/08/13 03:31:37;;;;;;;28.48;13.02;;;37.20;32.20;;;;;;5083636;28;20104;-65
2021/08/13 03:34:07;;;;;;;30.25;12.88;;;37.20;32.50;;;;;;5087765;28;20164;-65
2021/08/13 03:36:35;;;;;;;34.90;11.75;;;37.10;32.10;;;;;;5085364;28;20072;-64
2021/08/13 03:39:02;;;;;;;31.75;12.13;;;37.10;32.60;;;;;;5083903;28;20609;-64
2021/08/13 03:41:29;;;;;;;30.90;13.20;;;37.00;32.50;;;;;;5079199;28;20119;-64
2021/08/13 03:43:55;;;;;;;28.85;14.00;;;37.00;32.30;;;;;;5083443;28;20183;-65
2021/08/13 03:46:22;;;;;;;40.92;13.30;;;36.90;32.90;;;;;;5086630;28;20133;-64
2021/08/13 03:48:49;;;;;;;30.40;12.10;;;36.90;33.00;;;;;;5081369;28;20434;-65
2021/08/13 03:51:16;;;;;;;29.48;12.35;;;36.90;32.80;;;;;;5081313;28;20123;-65
2021/08/13 03:53:44;;;;;;;27.65;10.80;;;36.90;32.80;;;;;;5086511;28;20079;-64
2021/08/13 03:56:11;;;;;;;24.15;10.48;;;36.80;32.80;;;;;;5081930;28;20184;-64
2021/08/13 03:58:37;;;;;;;26.50;10.95;;;36.80;33.00;;;;;;5087297;28;20170;-65
2021/08/13 04:01:06;;;;;;;24.73;9.43;;;36.80;32.90;;;;;;5079876;28;20073;-64
2021/08/13 04:03:33;;;;;;;30.38;10.23;;;36.70;33.10;;;;;;5083086;28;20103;-64
2021/08/13 04:06:00;;;;;;;22.70;9.82;;;36.70;33.90;;;;;;5084124;28;20065;-65
2021/08/13 04:08:27;;;;;;;21.92;9.75;;;36.60;33.20;;;;;;5084893;28;20099;-64
2021/08/13 04:10:53;;;;;;;20.15;8.15;;;36.60;33.20;;;;;;5082956;28;20084;-64
2021/08/13 04:13:20;;;;;;;22.35;8.50;;;36.60;33.50;;;;;;5084859;28;20091;-64
2021/08/13 04:15:46;;;;;;;22.35;9.18;;;36.50;33.00;;;;;;5083156;28;20076;-65
2021/08/13 04:18:13;;;;;;;31.88;8.57;;;36.50;33.30;;;;;;5086833;28;20083;-64
2021/08/13 04:20:40;;;;;;;21.70;8.80;;;36.50;33.80;;;;;;5063943;28;20096;-64
2021/08/13 04:23:06;;;;;;;18.20;7.95;;;36.50;33.50;;;;;;5084984;28;20458;-64
2021/08/13 04:25:33;;;;;;;18.88;6.78;;;36.40;33.90;;;;;;5083768;28;20075;-64
2021/08/13 04:27:59;;;;;;;29.45;6.88;;;36.30;33.30;;;;;;5082639;28;20074;-64
2021/08/13 04:30:26;;;;;;;18.30;6.40;;;36.30;33.10;;;;;;5082037;28;20073;-64
2021/08/13 04:32:53;;;;;;;28.17;6.80;;;36.30;33.50;;;;;;5084032;28;20076;-65
2021/08/13 04:35:19;;;;;;;18.30;5.68;;;36.30;34.30;;;;;;5081528;28;20122;-66
2021/08/13 04:37:46;;;;;;;28.23;6.43;;;36.20;34.00;;;;;;5083794;28;20080;-64
2021/08/13 04:40:12;;;;;;;26.77;6.25;;;36.20;34.20;;;;;;5082585;28;20468;-64
2021/08/13 04:42:39;;;;;;;16.80;5.78;;;36.20;34.10;;;;;;5081591;28;20444;-64
2021/08/13 04:45:06;;;;;;;30.83;6.30;;;36.10;34.50;;;;;;5082289;28;20568;-64
2021/08/13 04:47:42;;;;;;;22.05;5.75;;;36.00;33.60;;;;;;5084608;28;20130;-66
2021/08/13 04:50:08;;;;;;;;;;;36.00;34.00;;;;;;5085802;28;20072;-64
2021/08/13 04:52:43;;;;;;;19.02;5.63;;;35.90;34.80;;;;;;5084320;28;20414;-65
2021/08/13 04:55:10;;;;;;;28.33;5.47;;;35.90;35.00;;;;;;5076972;28;20076;-65
2021/08/13 04:57:37;;;;;;;15.55;5.53;;;35.80;34.60;;;;;;5083837;28;20073;-63
2021/08/13 05:00:05;;;;;;;22.55;5.28;;;35.70;34.70;;;;;;5082372;28;20156;-61
2021/08/13 05:02:31;;;;;;;18.20;5.15;;;35.70;34.40;;;;;;5080742;28;20190;-64
2021/08/13 05:04:59;;;;;;;29.17;5.88;;;36.10;34.30;;;;;;5084304;28;20024;-64
2021/08/13 05:07:28;;;;;;;24.30;5.68;;;35.60;34.10;;;;;;5081303;28;20040;-64
2021/08/13 05:09:54;;;;;;;25.67;5.85;;;35.60;34.40;;;;;;5085054;28;20084;-64
2021/08/13 05:12:21;;;;;;;25.38;5.10;;;35.50;34.40;;;;;;5081868;28;20073;-64
2021/08/13 05:14:47;;;;;;;23.95;5.93;;;35.50;34.20;;;;;;5083262;28;20094;-65
2021/08/13 05:17:14;;;;;;;21.08;5.95;;;35.50;34.40;;;;;;5081560;28;20068;-65
2021/08/13 05:19:41;;;;;;;32.15;5.90;;;35.50;34.10;;;;;;5084247;28;20076;-65
2021/08/13 05:22:10;;;;;;;25.13;4.55;;;35.50;34.50;;;;;;5082651;28;20069;-65
2021/08/13 05:24:37;;;;;;;29.48;5.18;;;35.50;34.70;;;;;;5077521;28;20104;-65
2021/08/13 05:27:04;;;;;;;27.55;5.20;;;35.50;34.40;;;;;;5081441;28;20153;-64
2021/08/13 05:29:30;;;;;;;25.40;4.70;;;35.40;34.60;;;;;;5078333;28;20160;-64
2021/08/13 05:31:57;;;;;;;25.80;5.82;;;35.40;34.50;;;;;;5080965;28;20071;-63
2021/08/13 05:34:23;;;;;;;20.23;5.05;;;35.40;34.90;;;;;;5085680;28;20478;-62
2021/08/13 05:36:50;;;;;;;18.33;4.72;;;35.40;34.90;;;;;;5082317;28;20102;-64
2021/08/13 05:39:16;;;;;;;14.68;5.13;;;35.40;35.20;;;;;;5083898;28;20096;-63
2021/08/13 05:41:43;;;;;;;15.77;4.80;;;35.40;34.70;;;;;;5076889;28;20080;-63
2021/08/13 05:44:09;;;;;;;22.38;4.53;;;35.30;35.00;;;;;;5080707;28;20126;-60
2021/08/13 05:46:36;;;;;;;13.27;4.88;;;35.20;34.80;;;;;;5080466;28;20077;-59
2021/08/13 05:49:11;;;;;;;22.23;4.97;;;35.20;35.10;;;;;;5083140;28;20073;-63
2021/08/13 05:51:37;;;;;;;15.07;4.63;;;35.20;35.30;;;;;;5085541;28;20120;-61
2021/08/13 05:54:04;;;;;;;19.30;4.90;;;35.20;35.10;;;;;;5082875;28;20101;-60
2021/08/13 05:56:30;;;;;;;15.43;4.50;;;35.10;35.00;;;;;;5080880;28;20122;-60
2021/08/13 05:59:01;;;;;;;12.48;4.60;;;35.10;35.80;;;;;;5082726;28;20120;-60
2021/08/13 06:01:28;;;;;;;14.43;5.03;;;35.00;35.30;;;;;;5085821;28;20464;-58
2021/08/13 06:03:54;;;;;;;20.13;4.50;;;35.00;35.40;;;;;;5086065;28;20096;-59
2021/08/13 06:06:21;;;;;;;13.00;4.30;;;35.00;35.30;;;;;;5082737;28;20069;-59
2021/08/13 06:08:47;;;;;;;17.90;4.03;;;35.00;35.30;;;;;;5084114;28;20553;-60
2021/08/13 06:11:14;;;;;;;16.05;4.45;;;34.90;35.40;;;;;;5086108;28;20073;-59
2021/08/13 06:13:40;;;;;;;10.10;3.92;;;34.90;36.00;;;;;;5086697;28;20561;-59
2021/08/13 06:16:07;;;;;;;12.73;3.90;;;34.90;35.70;;;;;;5083775;28;20551;-60
2021/08/13 06:18:33;;;;;;;13.27;4.18;;;34.90;35.60;;;;;;5085122;28;20072;-59
2021/08/13 06:21:00;;;;;;;15.00;3.90;;;34.90;35.10;;;;;;5086456;28;20446;-59
2021/08/13 06:23:26;;;;;;;17.27;4.38;;;34.90;35.40;;;;;;5082349;28;20104;-59
2021/08/13 06:25:53;;;;;;;14.07;4.05;;;34.90;34.90;;;;;;5082287;28;20100;-59
2021/08/13 06:28:19;;;;;;;14.10;3.83;;;34.90;34.80;;;;;;5085552;28;20450;-60
2021/08/13 06:30:47;;;;;;;18.95;4.03;;;34.80;35.00;;;;;;5088499;28;20478;-58
2021/08/13 06:33:13;;;;;;;12.27;3.75;;;34.80;34.60;;;;;;5086833;28;20072;-58
2021/08/13 06:35:40;;;;;;;9.73;3.80;;;34.80;36.00;;;;;;5084957;28;20080;-58
2021/08/13 06:38:09;;;;;;;16.73;3.88;;;34.80;35.00;;;;;;5086204;28;20124;-57
2021/08/13 06:40:36;;;;;;;19.15;3.25;;;34.80;34.90;;;;;;5088093;28;20080;-58
2021/08/13 06:43:03;;;;;;;16.08;3.72;;;34.70;35.30;;;;;;5083179;28;20410;-59
2021/08/13 06:45:30;;;;;;;15.82;3.47;;;34.70;35.20;;;;;;5088007;28;20080;-59
2021/08/13 06:47:56;;;;;;;27.48;4.88;;;34.60;35.50;;;;;;5082663;28;20137;-60
2021/08/13 06:50:31;;;;;;;19.00;4.25;;;34.60;35.90;;;;;;5086642;28;20096;-58
2021/08/13 06:52:58;;;;;;;28.05;3.70;;;34.60;35.40;;;;;;5086927;28;20076;-59
2021/08/13 06:55:25;;;;;;;24.55;4.20;;;34.60;35.80;;;;;;5083635;28;20088;-59
2021/08/13 06:57:51;;;;;;;19.13;3.65;;;34.50;35.90;;;;;;5080401;28;20739;-59
2021/08/13 07:00:18;;;;;;;9.30;3.22;;;34.50;35.50;;;;;;5083262;28;20569;-59
2021/08/13 07:02:47;;;;;;;22.45;3.55;;;34.40;35.40;;;;;;5086733;28;20071;-59
2021/08/13 07:05:15;;;;;;;15.50;3.35;;;34.40;35.80;;;;;;5085972;28;20114;-59
2021/08/13 07:07:41;;;;;;;16.88;3.50;;;34.40;35.50;;;;;;5083376;28;20077;-58
2021/08/13 07:10:10;;;;;;;24.83;3.80;;;34.40;35.40;;;;;;5082951;28;20072;-58
2021/08/13 07:12:37;;;;;;;14.18;3.35;;;34.40;35.60;;;;;;5082905;28;20126;-57
2021/08/13 07:15:06;;;;;;;12.90;3.17;;;34.40;35.70;;;;;;5084832;28;20096;-58
2021/08/13 07:17:33;;;;;;;17.30;3.30;;;34.30;35.70;;;;;;5083094;28;20537;-58
2021/08/13 07:20:00;;;;;;;22.02;3.28;;;34.30;35.80;;;;;;5083485;28;20077;-59
2021/08/13 07:22:26;;;;;;;26.50;3.78;;;34.30;35.60;;;;;;5078501;28;20521;-59
2021/08/13 07:24:53;;;;;;;20.55;2.78;;;34.30;35.60;;;;;;5083205;28;20600;-58
2021/08/13 07:27:19;;;;;;;17.63;3.17;;;34.30;35.90;;;;;;5083599;28;20081;-59
2021/08/13 07:29:46;;;;;;;19.48;3.47;;;34.20;35.80;;;;;;5079901;28;20441;-59
2021/08/13 07:32:12;;;;;;;21.60;3.35;;;34.20;36.00;;;;;;5084727;28;20072;-57
2021/08/13 07:34:39;;;;;;;20.50;3.25;;;34.20;35.60;;;;;;5082525;28;20441;-59
2021/08/13 07:37:05;;;;;;;15.05;3.50;;;34.20;35.80;;;;;;5085228;28;20137;-59
2021/08/13 07:39:32;;;;;;;17.75;3.15;;;34.20;36.00;;;;;;5082929;28;20470;-59
2021/08/13 07:41:59;;;;;;;14.75;3.00;;;34.10;36.90;;;;;;5083670;28;20081;-58
2021/08/13 07:44:26;;;;;;;14.52;3.65;;;34.10;36.50;;;;;;5082755;28;20101;-57
2021/08/13 07:46:53;;;;;;;39.88;3.78;;;34.10;36.60;;;;;;5081970;28;20126;-59
2021/08/13 07:49:19;;;;;;;18.65;3.50;;;34.10;37.20;;;;;;5087347;28;20099;-58
2021/08/13 07:51:46;;;;;;;9.90;3.30;;;34.10;37.10;;;;;;5082380;28;20113;-60
2021/08/13 07:54:12;;;;;;;17.80;2.97;;;34.10;36.80;;;;;;5085834;28;20099;-59
2021/08/13 07:56:39;;;;;;;15.50;3.15;;;34.00;37.00;;;;;;5084529;28;20073;-59
2021/08/13 07:59:05;;;;;;;17.92;3.22;;;33.90;37.70;;;;;;5082945;28;20095;-60
2021/08/13 08:01:32;;;;;;;14.95;3.35;;;33.90;37.50;;;;;;5081810;28;20076;-59
2021/08/13 08:03:58;;;;;;;15.00;3.38;;;33.90;37.60;;;;;;5083061;28;20123;-58
2021/08/13 08:06:29;;;;;;;13.10;3.20;;;33.80;37.40;;;;;;5084183;28;20111;-62
2021/08/13 08:08:56;;;;;;;12.98;2.97;;;33.80;37.40;;;;;;5082943;28;20079;-61
2021/08/13 08:11:22;;;;;;;16.40;2.80;;;33.70;37.90;;;;;;5085696;28;20076;-59
2021/08/13 08:13:50;;;;;;;12.43;2.72;;;33.70;37.60;;;;;;5082969;28;20073;-52
2021/08/13 08:16:16;;;;;;;15.30;3.13;;;33.60;38.50;;;;;;5083101;28;20077;-58
2021/08/13 08:18:43;;;;;;;11.13;2.63;;;33.60;38.90;;;;;;5086676;28;20102;-59
2021/08/13 08:21:09;;;;;;;14.32;2.80;;;33.60;39.10;;;;;;5085460;28;20466;-58
2021/08/13 08:23:36;;;;;;;10.18;2.72;;;33.40;38.90;;;;;;5085615;28;20098;-57
2021/08/13 08:26:04;;;;;;;10.55;3.15;;;33.40;38.80;;;;;;5083021;28;20076;-58
2021/08/13 08:28:30;;;;;;;11.70;2.80;;;33.30;38.90;;;;;;5082659;28;20160;-57
2021/08/13 08:30:57;;;;;;;11.88;2.70;;;33.40;39.20;;;;;;5084644;28;20126;-57
2021/08/13 08:33:23;;;;;;;8.88;2.67;;;33.40;38.90;;;;;;5082968;28;20119;-53
2021/08/13 08:35:50;;;;;;;13.35;3.22;;;33.50;39.10;;;;;;5081472;28;20083;-58
2021/08/13 08:38:16;;;;;;;20.58;4.85;;;33.60;39.40;;;;;;5082528;28;20538;-58
2021/08/13 08:40:43;;;;;;;17.38;5.03;;;33.60;41.50;;;;;;5082396;28;20072;-57
2021/08/13 08:43:10;;;;;;;21.77;5.50;;;33.70;43.30;;;;;;5082037;28;20180;-58
2021/08/13 08:45:38;;;;;;;26.95;5.63;;;33.70;44.30;;;;;;5078585;28;20069;-58
2021/08/13 08:48:09;;;;;;;20.35;5.65;;;33.70;44.70;;;;;;5083058;28;21371;-59
2021/08/13 08:50:41;;;;;;;30.35;6.05;;;33.70;44.40;;;;;;5083640;28;20220;-57
2021/08/13 08:53:21;;;;;;;20.05;6.10;;;33.70;43.60;;;;;;5080896;28;20088;-57
2021/08/13 08:55:48;;;;;;;23.67;5.85;;;33.70;43.30;;;;;;5081306;28;20104;-57
2021/08/13 08:58:16;;;;;;;23.35;6.05;;;33.70;42.50;;;;;;5078902;28;20145;-57
2021/08/13 09:00:45;;;;;;;21.33;5.45;;;33.70;42.00;;;;;;5083201;28;20174;-56
2021/08/13 09:03:12;;;;;;;21.50;5.00;;;33.70;42.00;;;;;;5085464;28;20089;-57
2021/08/13 09:05:39;;;;;;;16.83;4.72;;;33.60;41.80;;;;;;5082262;28;20077;-57
2021/08/13 09:08:06;;;;;;;19.25;5.18;;;33.60;41.30;;;;;;5082025;28;20527;-60
2021/08/13 09:10:34;;;;;;;13.75;4.78;;;33.60;40.70;;;;;;5081292;28;20108;-58
2021/08/13 09:13:05;;;;;;;26.10;5.43;;;33.50;41.40;;;;;;5084714;28;20065;-58
2021/08/13 09:15:34;;;;;;;30.20;5.38;;;33.60;40.50;;;;;;5085695;28;20085;-56
2021/08/13 09:18:30;;;;;;;16.50;4.32;;;33.60;40.60;;;;;;5080975;28;20073;-58
2021/08/13 09:21:01;;;;;;;13.50;4.53;;;33.40;41.90;;;;;;5088611;28;20449;-57
2021/08/13 09:23:45;;;;;;;14.05;4.30;;;33.40;41.30;;;;;;5081581;28;20100;-58
2021/08/13 09:26:14;;;;;;;10.77;4.15;;;33.40;42.30;;;;;;5082250;28;20060;-57
2021/08/13 09:28:53;;;;;;;16.17;4.30;;;33.40;42.60;;;;;;5085532;28;20132;-55
2021/08/13 09:31:22;;;;;;;18.08;4.30;;;33.20;42.90;;;;;;5082180;28;20078;-57
2021/08/13 09:33:55;;;;;;;23.88;4.43;;;33.20;43.30;;;;;;5085274;28;20138;-58
2021/08/13 09:36:24;;;;;;;14.45;3.67;;;33.20;44.10;;;;;;5087533;28;20084;-57
2021/08/13 09:39:04;;;;;;;17.42;3.67;;;33.00;45.20;;;;;;5085693;28;20131;-58
2021/08/13 09:41:45;;;;;;;13.57;4.22;;;32.90;46.60;;;;;;5084672;28;20064;-59
2021/08/13 09:44:13;;;;;;;16.92;3.72;;;32.90;47.50;;;;;;5082578;28;20097;-58
2021/08/13 09:46:55;;;;;;;14.20;3.63;;;32.90;48.50;;;;;;5086899;28;20145;-58
2021/08/13 09:49:22;;;;;;;16.45;3.38;;;32.90;48.50;;;;;;5084700;28;20076;-57
2021/08/13 09:51:49;;;;;;;13.93;4.07;;;32.90;47.00;;;;;;5085649;28;20558;-57
2021/08/13 09:54:15;;;;;;;14.75;3.95;;;32.80;46.20;;;;;;5090725;28;20418;-57
2021/08/13 09:56:42;;;;;;;15.32;4.57;;;32.80;46.20;;;;;;5083081;28;20127;-57
2021/08/13 09:59:17;;;;;;;12.70;4.38;;;32.90;46.00;;;;;;5083093;28;20069;-56
2021/08/13 10:01:45;;;;;;;15.88;4.15;;;32.90;46.30;;;;;;5083217;28;20068;-58
2021/08/13 10:04:13;;;;;;;14.35;3.92;;;32.90;47.70;;;;;;5083089;28;20465;-57
2021/08/13 10:06:41;;;;;;;14.35;4.30;;;32.90;47.90;;;;;;5084451;28;20077;-59
2021/08/13 10:09:28;;;;;;;17.90;4.50;;;32.80;48.10;;;;;;5085832;28;20079;-57
2021/08/13 10:12:01;;;;;;;14.35;3.45;;;32.80;49.00;;;;;;5082585;28;20160;-56
2021/08/13 10:14:40;;;;;;;16.77;3.92;;;32.70;52.00;;;;;;5082720;28;20139;-58
2021/08/13 10:17:07;;;;;;;12.13;4.10;;;32.50;53.10;;;;;;5081788;28;20077;-57
2021/08/13 10:19:34;;;;;;;13.65;3.50;;;32.50;54.60;;;;;;5084716;28;20122;-57
2021/08/13 10:22:01;;;;;;;12.23;3.40;;;32.40;55.10;;;;;;5087052;28;20084;-57
2021/08/13 10:24:30;;;;;;;13.77;3.28;;;32.40;56.90;;;;;;5087886;28;20092;-56
2021/08/13 10:26:57;;;;;;;14.60;3.20;;;32.40;57.90;;;;;;5089142;28;20117;-56
2021/08/13 10:29:24;;;;;;;11.18;3.58;;;32.40;58.40;;;;;;5085496;28;20080;-57
2021/08/13 10:31:51;;;;;;;11.82;3.08;;;32.30;58.90;;;;;;5091711;28;20074;-58
2021/08/13 10:34:18;;;;;;;12.73;3.03;;;32.30;59.70;;;;;;5091757;28;20077;-56
2021/08/13 10:36:47;;;;;;;11.75;2.83;;;32.40;60.50;;;;;;5084975;28;20068;-57
2021/08/13 10:39:16;;;;;;;14.63;3.10;;;32.40;61.00;;;;;;5086350;28;20080;-57
2021/08/13 10:41:46;;;;;;;11.20;3.15;;;32.50;61.20;;;;;;5089397;28;20175;-57
2021/08/13 10:44:20;;;;;;;6.13;2.58;;;32.50;61.40;;;;;;5082146;28;20154;-56
2021/08/13 10:46:48;;;;;;;10.40;3.13;;;32.50;62.00;;;;;;5085387;28;20091;-58
2021/08/13 10:49:17;;;;;;;12.52;3.10;;;32.40;63.20;;;;;;5084384;28;20156;-57
2021/08/13 10:51:44;;;;;;;13.07;3.47;;;32.50;62.50;;;;;;5083183;28;20116;-59
2021/08/13 10:54:19;;;;;;;10.43;3.28;;;32.50;62.80;;;;;;5086059;28;20073;-59
2021/08/13 10:56:50;;;;;;;13.80;2.63;;;32.50;63.20;;;;;;5082039;28;20155;-58
2021/08/13 10:59:45;;;;;;;11.98;2.55;;;32.50;64.80;;;;;;5080221;28;21359;-60
2021/08/13 11:02:14;;;;;;;11.65;2.20;;;32.40;66.20;;;;;;5084125;28;20766;-59
2021/08/13 11:04:46;;;;;;;8.18;2.72;;;32.50;66.60;;;;;;5081241;28;20533;-55
2021/08/13 11:07:14;;;;;;;10.13;2.45;;;32.40;66.80;;;;;;5081791;28;20081;-58
2021/08/13 11:09:41;;;;;;;9.02;2.40;;;32.40;67.10;;;;;;5079194;28;20077;-60
2021/08/13 11:12:14;;;;;;;9.93;2.40;;;32.10;67.90;;;;;;5083983;28;20160;-57
2021/08/13 11:14:54;;;;;;;12.20;2.60;;;32.10;68.10;;;;;;5086632;28;20069;-59
2021/08/13 11:17:38;;;;;;;12.27;2.40;;;32.20;68.20;;;;;;5081279;28;20117;-57
2021/08/13 11:20:07;;;;;;;9.60;2.28;;;32.00;68.60;;;;;;5084486;28;20127;-54
2021/08/13 11:22:37;;;;;;;9.57;2.55;;;32.10;69.50;;;;;;5083629;28;20174;-56
2021/08/13 11:25:08;;;;;;;10.95;2.22;;;31.80;69.30;;;;;;5088240;28;20088;-56
2021/08/13 11:27:36;;;;;;;11.75;2.70;;;31.80;69.40;;;;;;5083361;28;20087;-59
2021/08/13 11:30:06;;;;;;;13.57;2.53;;;31.80;69.50;;;;;;5083556;28;20119;-59
2021/08/13 11:32:35;;;;;;;9.80;2.42;;;31.80;69.80;;;;;;5083277;28;20159;-58
2021/08/13 11:35:09;;;;;;;13.25;2.83;;;31.80;69.50;;;;;;5084532;28;20077;-58
2021/08/13 11:37:37;;;;;;;8.60;2.70;;;31.90;68.80;;;;;;5081941;28;20097;-55
2021/08/13 11:40:06;;;;;;;9.80;2.80;;;31.80;69.00;;;;;;5082730;28;20081;-56
2021/08/13 11:42:33;;;;;;;12.10;3.08;;;31.80;68.90;;;;;;5085971;28;20595;-55
2021/08/13 11:45:09;;;;;;;8.27;2.28;;;31.70;69.00;;;;;;5082009;28;20195;-56
2021/08/13 11:47:45;;;;;;;12.60;2.28;;;31.60;69.50;;;;;;5085441;28;20414;-58
2021/08/13 11:50:11;;;;;;;;;;;31.50;69.80;;;;;;5083996;28;20104;-54
2021/08/13 11:52:46;;;;;;;11.50;2.97;;;31.50;69.80;;;;;;5087002;28;19952;-58
2021/08/13 11:55:23;;;;;;;8.38;2.85;;;31.50;70.00;;;;;;5079732;28;21636;-56
2021/08/13 11:57:50;;;;;;;10.10;2.88;;;31.50;70.10;;;;;;5084244;28;20571;-57
2021/08/13 12:00:24;;;;;;;8.98;3.45;;;31.50;70.00;;;;;;5079530;28;20077;-55
2021/08/13 12:02:58;;;;;;;13.27;3.35;;;31.40;70.10;;;;;;5082245;28;20089;-60
2021/08/13 12:05:30;;;;;;;12.80;3.95;;;31.40;70.40;;;;;;5080073;28;20133;-58
2021/08/13 12:07:59;;;;;;;6.60;3.40;;;31.40;70.50;;;;;;5080325;28;20488;-58
2021/08/13 12:10:27;;;;;;;15.02;4.50;;;31.40;70.10;;;;;;5085143;28;20104;-57
2021/08/13 12:12:54;;;;;;;12.48;4.93;;;31.40;70.10;;;;;;5077149;28;20421;-58
2021/08/13 12:15:32;;;;;;;20.48;6.30;;;31.50;69.90;;;;;;5082617;28;20156;-58
2021/08/13 12:18:00;;;;;;;16.15;5.90;;;31.30;70.10;;;;;;5082610;28;20103;-59
2021/08/13 12:20:27;;;;;;;14.15;5.43;;;31.30;70.10;;;;;;5081719;28;20099;-57
2021/08/13 12:23:05;;;;;;;13.48;5.65;;;31.20;70.50;;;;;;5080980;28;20145;-58
2021/08/13 12:25:49;;;;;;;17.35;6.55;;;31.20;70.60;;;;;;5084839;28;20155;-57
2021/08/13 12:28:18;;;;;;;27.35;10.30;;;31.10;70.90;;;;;;5085556;28;20447;-57
2021/08/13 12:30:45;;;;;;;19.02;6.40;;;31.20;70.90;;;;;;5081840;28;20072;-57
2021/08/13 12:33:19;;;;;;;14.70;6.07;;;31.20;70.80;;;;;;5084926;28;20595;-57
2021/08/13 12:35:47;;;;;;;26.10;6.93;;;31.20;70.80;;;;;;5083316;28;20227;-56
2021/08/13 12:38:15;;;;;;;17.13;7.43;;;31.10;71.20;;;;;;5081735;28;20077;-57
2021/08/13 12:40:45;;;;;;;17.45;6.93;;;31.00;71.70;;;;;;5084829;28;20201;-56
2021/08/13 12:43:12;;;;;;;17.88;6.30;;;31.10;71.20;;;;;;5080811;28;20774;-57
2021/08/13 12:45:39;;;;;;;15.27;6.47;;;31.10;71.00;;;;;;5079668;28;20106;-58
2021/08/13 12:48:07;;;;;;;17.50;6.40;;;31.10;70.80;;;;;;5081411;28;20546;-58